Naniwa Maru No48 — JD3365 — position and weather

sailwx.info

Track history (hours):
 
Tides and Currents Weather Stations Pressure Air Temp Water Temp Dewpoint Dewpoint Depression Visibility Wind Speed Wind Dir Waves Ship Positions

Naniwa Maru No48

Last reported at 2018-Jul-21 22:44 UTC. Time now 2018-Jul-22 00:58 UTC.
Position N 35°32' E 140°03'.

Length 104 m; draft 6.7 m.

Type: Tanker. MMSI: 431003537.

Date/timePositionNaut miles runAvg speedWind from/ knotsBaromVisibWave heightAir tempDewpointWater temp
2018-Jul-21 22:44N 35°32' E 140°03'1 3.5
2018-Jul-21 22:30N 35°32' E 140°02'1 2.1
2018-Jul-21 21:54N 35°33' E 140°01'1 0.1
2018-Jul-21 05:02N 35°32' E 140°02'1 7.5
2018-Jul-21 04:57N 35°32' E 140°03'0 0.5
2018-Jul-21 04:30N 35°32' E 140°03'0 0.0
2018-Jul-21 04:00N 35°32' E 140°03'0 0.0
2018-Jul-21 03:30N 35°32' E 140°03'0 0.0
2018-Jul-21 03:00N 35°32' E 140°03'0 0.0
2018-Jul-21 02:30N 35°32' E 140°03'0 0.0
2018-Jul-21 02:00N 35°32' E 140°03'0 0.0
2018-Jul-21 01:30N 35°32' E 140°03'0 0.1
2018-Jul-20 23:57N 35°32' E 140°03'2 1.0
2018-Jul-20 22:06N 35°33' E 140°01'0 0.6
2018-Jul-20 22:00N 35°33' E 140°01'5 8.2
2018-Jul-20 21:25N 35°31' E 139°55'614.0
2018-Jul-20 20:59N 35°27' E 139°50'613.3
2018-Jul-20 20:30N 35°22' E 139°45'611.8
2018-Jul-20 20:00N 35°16' E 139°46'713.2
2018-Jul-20 19:30N 35°09' E 139°46'714.1
2018-Jul-20 19:00N 35°03' E 139°41'714.6
2018-Jul-20 18:30N 34°59' E 139°34'232 7.3
2018-Jul-19 10:43N 33°43' E 135°09'714.1
2018-Jul-19 10:14N 33°49' E 135°04'314.0
2018-Jul-19 10:00N 33°51' E 135°01'714.0
2018-Jul-19 09:30N 33°58' E 134°59'713.7
2018-Jul-19 09:00N 34°05' E 134°59'714.0
2018-Jul-19 08:30N 34°12' E 134°59'714.9
2018-Jul-19 08:00N 34°19' E 134°59'713.5
2018-Jul-19 07:30N 34°24' E 135°04'714.3
2018-Jul-19 07:00N 34°29' E 135°11'713.9
2018-Jul-19 06:30N 34°33' E 135°17'612.4
2018-Jul-19 06:00N 34°36' E 135°24'3 4.8
2018-Jul-19 05:28N 34°35' E 135°26'0 0.0
2018-Jul-19 05:00N 34°35' E 135°26'0 0.0
2018-Jul-19 04:30N 34°35' E 135°26'0 0.0
2018-Jul-19 03:59N 34°35' E 135°26'0 0.0
2018-Jul-19 03:30N 34°35' E 135°26'0 0.0
2018-Jul-19 03:00N 34°35' E 135°26'0 0.0
2018-Jul-18 22:32N 34°35' E 135°26'0 1.5
2018-Jul-18 22:30N 34°35' E 135°26'3 5.7
2018-Jul-18 22:00N 34°36' E 135°23'1 0.9
2018-Jul-18 21:10N 34°36' E 135°22'0 0.0
2018-Jul-18 20:46N 34°36' E 135°22'0 0.1
2018-Jul-18 20:22N 34°36' E 135°22'0 0.0
2018-Jul-18 19:34N 34°36' E 135°22'0 0.0
2018-Jul-18 19:22N 34°36' E 135°22'0 0.0
2018-Jul-18 18:52N 34°36' E 135°22'0 0.0
2018-Jul-18 18:28N 34°36' E 135°22'0 0.1
2018-Jul-18 17:52N 34°36' E 135°22'0 0.0
2018-Jul-18 17:28N 34°36' E 135°22'0 0.0
2018-Jul-18 16:40N 34°36' E 135°22'0 0.0
2018-Jul-18 16:16N 34°36' E 135°22'0 0.0
2018-Jul-18 15:52N 34°36' E 135°22'0 0.0
2018-Jul-18 15:28N 34°36' E 135°22'0 0.0
2018-Jul-18 14:46N 34°36' E 135°22'0 0.0
2018-Jul-18 14:28N 34°36' E 135°22'0 0.1
2018-Jul-18 13:28N 34°36' E 135°22'3 6.3
2018-Jul-18 13:01N 34°34' E 135°19'714.1
2018-Jul-18 12:30N 34°29' E 135°13'714.0
2018-Jul-18 12:01N 34°24' E 135°07'714.2
2018-Jul-18 11:30N 34°19' E 135°01'1313.0
2018-Jul-18 10:30N 34°06' E 134°60'714.9
2018-Jul-18 10:00N 33°59' E 135°00'714.1
2018-Jul-18 09:30N 33°52' E 135°00'234 4.9
2018-Jul-16 09:55N 34°59' E 139°32'512.1
2018-Jul-16 09:30N 35°02' E 139°36'713.8
2018-Jul-16 09:01N 35°07' E 139°43'713.3
2018-Jul-16 08:30N 35°13' E 139°46'612.0
2018-Jul-16 08:01N 35°18' E 139°44'611.3
2018-Jul-16 07:31N 35°24' E 139°43'713.0
2018-Jul-16 07:00N 35°28' E 139°49'612.6
2018-Jul-16 06:31N 35°31' E 139°55'611.8
2018-Jul-16 06:00N 35°32' E 140°02'1 0.1
2018-Jul-16 00:23N 35°32' E 140°03'2 5.4
2018-Jul-15 23:56N 35°33' E 140°00'510.8
2018-Jul-15 23:29N 35°31' E 139°55'613.0
2018-Jul-15 23:00N 35°27' E 139°49'612.4
2018-Jul-15 22:31N 35°22' E 139°45'510.5
2018-Jul-15 22:00N 35°16' E 139°46'611.4
2018-Jul-15 21:30N 35°11' E 139°46'714.0
2018-Jul-15 21:00N 35°05' E 139°42'714.6
2018-Jul-15 20:30N 34°60' E 139°36'236 6.4
2018-Jul-14 07:56N 33°48' E 135°04'614.5
2018-Jul-14 07:30N 33°53' E 134°59'815.5
2018-Jul-14 07:01N 34°01' E 134°59'815.8
2018-Jul-14 06:31N 34°09' E 134°58'917.9
2018-Jul-14 06:01N 34°17' E 134°59'815.3
2018-Jul-14 05:31N 34°24' E 135°03'815.3
2018-Jul-14 05:00N 34°29' E 135°11'714.3
2018-Jul-14 04:30N 34°33' E 135°17'612.4
2018-Jul-14 04:00N 34°36' E 135°24'2 4.5
2018-Jul-14 03:30N 34°35' E 135°26'0 0.0
2018-Jul-14 03:00N 34°35' E 135°26'0 0.0
2018-Jul-14 02:30N 34°35' E 135°26'0 0.0
2018-Jul-14 02:00N 34°35' E 135°26'0 0.0
2018-Jul-14 01:30N 34°35' E 135°26'0 0.0
2018-Jul-14 01:00N 34°35' E 135°26'0 0.0
2018-Jul-13 22:31N 34°35' E 135°26'0 6.1
2018-Jul-13 22:30N 34°35' E 135°26'3 6.0
2018-Jul-13 22:00N 34°36' E 135°22'0 0.9
2018-Jul-13 21:29N 34°36' E 135°22'0 0.1
2018-Jul-13 20:53N 34°36' E 135°22'0 0.0
2018-Jul-13 20:29N 34°36' E 135°22'0 0.0
2018-Jul-13 19:23N 34°36' E 135°22'0 0.0
2018-Jul-13 18:47N 34°36' E 135°22'0 0.0
2018-Jul-13 18:23N 34°36' E 135°22'0 0.0
2018-Jul-13 17:41N 34°36' E 135°22'0 0.0
2018-Jul-13 17:29N 34°36' E 135°22'0 0.0
2018-Jul-13 16:59N 34°36' E 135°22'0 0.0
2018-Jul-13 16:17N 34°36' E 135°22'0 0.0
2018-Jul-13 15:59N 34°36' E 135°22'0 0.1
2018-Jul-13 15:26N 34°36' E 135°22'0 0.0
2018-Jul-13 14:41N 34°36' E 135°22'0 0.0
2018-Jul-13 13:59N 34°36' E 135°22'0 0.0
2018-Jul-13 13:11N 34°36' E 135°22'0 0.0
2018-Jul-13 12:59N 34°36' E 135°22'0 0.0
2018-Jul-13 12:23N 34°36' E 135°22'0 0.1
2018-Jul-13 11:59N 34°36' E 135°22'0 0.0
2018-Jul-13 11:29N 34°36' E 135°22'0 0.1
2018-Jul-13 10:53N 34°36' E 135°22'0 0.0
2018-Jul-13 10:23N 34°36' E 135°22'0 0.0
2018-Jul-13 09:59N 34°36' E 135°22'0 0.0
2018-Jul-13 09:17N 34°36' E 135°22'0 0.0
2018-Jul-13 08:59N 34°36' E 135°22'0 0.1
2018-Jul-13 08:30N 34°36' E 135°22'511.1
2018-Jul-13 08:00N 34°32' E 135°17'713.8
2018-Jul-13 07:31N 34°28' E 135°11'713.5
2018-Jul-13 07:00N 34°23' E 135°05'713.6
2018-Jul-13 06:30N 34°18' E 134°60'611.2
2018-Jul-13 06:00N 34°12' E 134°59'611.3
2018-Jul-13 05:30N 34°07' E 134°59'713.2
2018-Jul-13 05:00N 33°60' E 134°60'713.2
2018-Jul-13 04:30N 33°53' E 134°60'23411.7
2018-Jul-12 08:35N 34°59' E 139°32'111.9
2018-Jul-12 08:30N 35°00' E 139°32'613.0
2018-Jul-12 08:00N 35°04' E 139°38'713.6
2018-Jul-12 07:30N 35°09' E 139°44'713.1
2018-Jul-12 07:00N 35°15' E 139°46'612.6
2018-Jul-12 06:30N 35°21' E 139°42'612.4
2018-Jul-12 06:00N 35°26' E 139°46'813.9
2018-Jul-12 05:26N 35°31' E 139°54'7 2.5
2018-Jul-12 02:24N 35°32' E 140°03'0 0.0
2018-Jul-12 01:47N 35°32' E 140°03'0 0.0
2018-Jul-12 01:30N 35°32' E 140°03'  
Track history (hours):
 
Tides and Currents Weather Stations Pressure Air Temp Water Temp Dewpoint Dewpoint Depression Visibility Wind Speed Wind Dir Waves Ship Positions

Naniwa Maru No48

Last reported at 2018-Jul-21 22:44 UTC. Time now 2018-Jul-22 00:58 UTC.
Position N 35°32' E 140°03'.

Length 104 m; draft 6.7 m.

Type: Tanker. MMSI: 431003537.

Date/timePositionNaut miles runAvg speedWind from/ knotsBaromVisibWave heightAir tempDewpointWater temp
2018-Jul-21 22:44N 35°32' E 140°03'1 3.5
2018-Jul-21 22:30N 35°32' E 140°02'1 2.1
2018-Jul-21 21:54N 35°33' E 140°01'1 0.1
2018-Jul-21 05:02N 35°32' E 140°02'1 7.5
2018-Jul-21 04:57N 35°32' E 140°03'0 0.5
2018-Jul-21 04:30N 35°32' E 140°03'0 0.0
2018-Jul-21 04:00N 35°32' E 140°03'0 0.0
2018-Jul-21 03:30N 35°32' E 140°03'0 0.0
2018-Jul-21 03:00N 35°32' E 140°03'0 0.0
2018-Jul-21 02:30N 35°32' E 140°03'0 0.0
2018-Jul-21 02:00N 35°32' E 140°03'0 0.0
2018-Jul-21 01:30N 35°32' E 140°03'0 0.1
2018-Jul-20 23:57N 35°32' E 140°03'2 1.0
2018-Jul-20 22:06N 35°33' E 140°01'0 0.6
2018-Jul-20 22:00N 35°33' E 140°01'5 8.2
2018-Jul-20 21:25N 35°31' E 139°55'614.0
2018-Jul-20 20:59N 35°27' E 139°50'613.3
2018-Jul-20 20:30N 35°22' E 139°45'611.8
2018-Jul-20 20:00N 35°16' E 139°46'713.2
2018-Jul-20 19:30N 35°09' E 139°46'714.1
2018-Jul-20 19:00N 35°03' E 139°41'714.6
2018-Jul-20 18:30N 34°59' E 139°34'232 7.3
2018-Jul-19 10:43N 33°43' E 135°09'714.1
2018-Jul-19 10:14N 33°49' E 135°04'314.0
2018-Jul-19 10:00N 33°51' E 135°01'714.0
2018-Jul-19 09:30N 33°58' E 134°59'713.7
2018-Jul-19 09:00N 34°05' E 134°59'714.0
2018-Jul-19 08:30N 34°12' E 134°59'714.9
2018-Jul-19 08:00N 34°19' E 134°59'713.5
2018-Jul-19 07:30N 34°24' E 135°04'714.3
2018-Jul-19 07:00N 34°29' E 135°11'713.9
2018-Jul-19 06:30N 34°33' E 135°17'612.4
2018-Jul-19 06:00N 34°36' E 135°24'3 4.8
2018-Jul-19 05:28N 34°35' E 135°26'0 0.0
2018-Jul-19 05:00N 34°35' E 135°26'0 0.0
2018-Jul-19 04:30N 34°35' E 135°26'0 0.0
2018-Jul-19 03:59N 34°35' E 135°26'0 0.0
2018-Jul-19 03:30N 34°35' E 135°26'0 0.0
2018-Jul-19 03:00N 34°35' E 135°26'0 0.0
2018-Jul-18 22:32N 34°35' E 135°26'0 1.5
2018-Jul-18 22:30N 34°35' E 135°26'3 5.7
2018-Jul-18 22:00N 34°36' E 135°23'1 0.9
2018-Jul-18 21:10N 34°36' E 135°22'0 0.0
2018-Jul-18 20:46N 34°36' E 135°22'0 0.1
2018-Jul-18 20:22N 34°36' E 135°22'0 0.0
2018-Jul-18 19:34N 34°36' E 135°22'0 0.0
2018-Jul-18 19:22N 34°36' E 135°22'0 0.0
2018-Jul-18 18:52N 34°36' E 135°22'0 0.0
2018-Jul-18 18:28N 34°36' E 135°22'0 0.1
2018-Jul-18 17:52N 34°36' E 135°22'0 0.0
2018-Jul-18 17:28N 34°36' E 135°22'0 0.0
2018-Jul-18 16:40N 34°36' E 135°22'0 0.0
2018-Jul-18 16:16N 34°36' E 135°22'0 0.0
2018-Jul-18 15:52N 34°36' E 135°22'0 0.0
2018-Jul-18 15:28N 34°36' E 135°22'0 0.0
2018-Jul-18 14:46N 34°36' E 135°22'0 0.0
2018-Jul-18 14:28N 34°36' E 135°22'0 0.1
2018-Jul-18 13:28N 34°36' E 135°22'3 6.3
2018-Jul-18 13:01N 34°34' E 135°19'714.1
2018-Jul-18 12:30N 34°29' E 135°13'714.0
2018-Jul-18 12:01N 34°24' E 135°07'714.2
2018-Jul-18 11:30N 34°19' E 135°01'1313.0
2018-Jul-18 10:30N 34°06' E 134°60'714.9
2018-Jul-18 10:00N 33°59' E 135°00'714.1
2018-Jul-18 09:30N 33°52' E 135°00'234 4.9
2018-Jul-16 09:55N 34°59' E 139°32'512.1
2018-Jul-16 09:30N 35°02' E 139°36'713.8
2018-Jul-16 09:01N 35°07' E 139°43'713.3
2018-Jul-16 08:30N 35°13' E 139°46'612.0
2018-Jul-16 08:01N 35°18' E 139°44'611.3
2018-Jul-16 07:31N 35°24' E 139°43'713.0
2018-Jul-16 07:00N 35°28' E 139°49'612.6
2018-Jul-16 06:31N 35°31' E 139°55'611.8
2018-Jul-16 06:00N 35°32' E 140°02'1 0.1
2018-Jul-16 00:23N 35°32' E 140°03'2 5.4
2018-Jul-15 23:56N 35°33' E 140°00'510.8
2018-Jul-15 23:29N 35°31' E 139°55'613.0
2018-Jul-15 23:00N 35°27' E 139°49'612.4
2018-Jul-15 22:31N 35°22' E 139°45'510.5
2018-Jul-15 22:00N 35°16' E 139°46'611.4
2018-Jul-15 21:30N 35°11' E 139°46'714.0
2018-Jul-15 21:00N 35°05' E 139°42'714.6
2018-Jul-15 20:30N 34°60' E 139°36'236 6.4
2018-Jul-14 07:56N 33°48' E 135°04'614.5
2018-Jul-14 07:30N 33°53' E 134°59'815.5
2018-Jul-14 07:01N 34°01' E 134°59'815.8
2018-Jul-14 06:31N 34°09' E 134°58'917.9
2018-Jul-14 06:01N 34°17' E 134°59'815.3
2018-Jul-14 05:31N 34°24' E 135°03'815.3
2018-Jul-14 05:00N 34°29' E 135°11'714.3
2018-Jul-14 04:30N 34°33' E 135°17'612.4
2018-Jul-14 04:00N 34°36' E 135°24'2 4.5
2018-Jul-14 03:30N 34°35' E 135°26'0 0.0
2018-Jul-14 03:00N 34°35' E 135°26'0 0.0
2018-Jul-14 02:30N 34°35' E 135°26'0 0.0
2018-Jul-14 02:00N 34°35' E 135°26'0 0.0
2018-Jul-14 01:30N 34°35' E 135°26'0 0.0
2018-Jul-14 01:00N 34°35' E 135°26'0 0.0
2018-Jul-13 22:31N 34°35' E 135°26'0 6.1
2018-Jul-13 22:30N 34°35' E 135°26'3 6.0
2018-Jul-13 22:00N 34°36' E 135°22'0 0.9
2018-Jul-13 21:29N 34°36' E 135°22'0 0.1
2018-Jul-13 20:53N 34°36' E 135°22'0 0.0
2018-Jul-13 20:29N 34°36' E 135°22'0 0.0
2018-Jul-13 19:23N 34°36' E 135°22'0 0.0
2018-Jul-13 18:47N 34°36' E 135°22'0 0.0
2018-Jul-13 18:23N 34°36' E 135°22'0 0.0
2018-Jul-13 17:41N 34°36' E 135°22'0 0.0
2018-Jul-13 17:29N 34°36' E 135°22'0 0.0
2018-Jul-13 16:59N 34°36' E 135°22'0 0.0
2018-Jul-13 16:17N 34°36' E 135°22'0 0.0
2018-Jul-13 15:59N 34°36' E 135°22'0 0.1
2018-Jul-13 15:26N 34°36' E 135°22'0 0.0
2018-Jul-13 14:41N 34°36' E 135°22'0 0.0
2018-Jul-13 13:59N 34°36' E 135°22'0 0.0
2018-Jul-13 13:11N 34°36' E 135°22'0 0.0
2018-Jul-13 12:59N 34°36' E 135°22'0 0.0
2018-Jul-13 12:23N 34°36' E 135°22'0 0.1
2018-Jul-13 11:59N 34°36' E 135°22'0 0.0
2018-Jul-13 11:29N 34°36' E 135°22'0 0.1
2018-Jul-13 10:53N 34°36' E 135°22'0 0.0
2018-Jul-13 10:23N 34°36' E 135°22'0 0.0
2018-Jul-13 09:59N 34°36' E 135°22'0 0.0
2018-Jul-13 09:17N 34°36' E 135°22'0 0.0
2018-Jul-13 08:59N 34°36' E 135°22'0 0.1
2018-Jul-13 08:30N 34°36' E 135°22'511.1
2018-Jul-13 08:00N 34°32' E 135°17'713.8
2018-Jul-13 07:31N 34°28' E 135°11'713.5
2018-Jul-13 07:00N 34°23' E 135°05'713.6
2018-Jul-13 06:30N 34°18' E 134°60'611.2
2018-Jul-13 06:00N 34°12' E 134°59'611.3
2018-Jul-13 05:30N 34°07' E 134°59'713.2
2018-Jul-13 05:00N 33°60' E 134°60'713.2
2018-Jul-13 04:30N 33°53' E 134°60'23411.7
2018-Jul-12 08:35N 34°59' E 139°32'111.9
2018-Jul-12 08:30N 35°00' E 139°32'613.0
2018-Jul-12 08:00N 35°04' E 139°38'713.6
2018-Jul-12 07:30N 35°09' E 139°44'713.1
2018-Jul-12 07:00N 35°15' E 139°46'612.6
2018-Jul-12 06:30N 35°21' E 139°42'612.4
2018-Jul-12 06:00N 35°26' E 139°46'813.9
2018-Jul-12 05:26N 35°31' E 139°54'7 2.5
2018-Jul-12 02:24N 35°32' E 140°03'0 0.0
2018-Jul-12 01:47N 35°32' E 140°03'0 0.0
2018-Jul-12 01:30N 35°32' E 140°03'  

Dump ship's entire track history